Terminal Aerodrome Forecast
Issued by NWS Quad Cities IA IL

Home | Current Version | Previous Version | Text Only | Print | Product List | Glossary On
Versions: 1 2 3 4 5 6 7 8 9 10 11 12 13 14
000
FTUS43 KDVN 221100
TAFMLI
TAF
KMLI 221123Z 2212/2312 19010KT P6SM SCT120
     FM221500 24014KT P6SM SCT150
     FM222300 28009KT P6SM BKN120
     FM230400 34007KT P6SM SCT150=

USA.gov is the U.S. government's official web portal to all federal, state and local government web resources and services.